createdAt,value
2022-12-13T00:01:28.074Z,13.57
2022-12-13T00:04:02.974Z,13.20
2022-12-13T00:06:30.740Z,13.07
2022-12-13T00:08:58.086Z,13.10
2022-12-13T00:11:24.598Z,13.30
2022-12-13T00:13:51.266Z,14.67
2022-12-13T00:16:22.235Z,13.90
2022-12-13T00:18:56.822Z,15.33
2022-12-13T00:21:26.138Z,14.53
2022-12-13T00:23:52.732Z,14.40
2022-12-13T00:26:21.630Z,15.27
2022-12-13T00:28:49.440Z,14.97
2022-12-13T00:34:04.803Z,14.83
2022-12-13T00:36:31.233Z,14.93
2022-12-13T00:39:00.532Z,14.70
2022-12-13T00:41:32.082Z,16.77
2022-12-13T00:44:01.189Z,16.60
2022-12-13T00:46:29.745Z,16.87
2022-12-13T00:48:58.888Z,16.87
2022-12-13T00:51:27.450Z,14.50
2022-12-13T00:53:56.481Z,15.57
2022-12-13T00:56:27.962Z,17.00
2022-12-13T00:58:55.431Z,17.70
2022-12-13T01:01:26.015Z,16.03
2022-12-13T01:03:57.359Z,16.07
2022-12-13T01:06:34.629Z,14.80
2022-12-13T01:09:02.924Z,15.90
2022-12-13T01:11:29.574Z,17.70
2022-12-13T01:13:56.082Z,16.60
2022-12-13T01:16:28.421Z,17.03
2022-12-13T01:18:57.468Z,17.30
2022-12-13T01:21:24.704Z,16.10
2022-12-13T01:23:51.251Z,15.57
2022-12-13T01:26:21.972Z,18.13
2022-12-13T01:28:49.056Z,16.33
2022-12-13T01:31:18.800Z,16.67
2022-12-13T01:33:45.621Z,17.83
2022-12-13T01:36:15.306Z,15.77
2022-12-13T01:38:42.110Z,17.87
2022-12-13T01:41:18.156Z,17.70
2022-12-13T01:43:44.926Z,19.47
2022-12-13T01:46:12.591Z,20.20
2022-12-13T01:48:44.339Z,19.03
2022-12-13T01:51:14.985Z,18.93
2022-12-13T01:53:43.997Z,19.50
2022-12-13T01:56:16.149Z,16.73
2022-12-13T01:58:42.922Z,19.33
2022-12-13T02:01:10.214Z,17.67
2022-12-13T02:03:37.507Z,20.70
2022-12-13T02:06:14.275Z,17.87
2022-12-13T02:08:43.785Z,18.70
2022-12-13T02:11:11.218Z,19.30
2022-12-13T02:13:37.921Z,18.10
2022-12-13T02:16:29.044Z,19.27
2022-12-13T02:18:58.422Z,17.30
2022-12-13T02:21:34.609Z,19.73
2022-12-13T02:24:08.639Z,19.67
2022-12-13T02:26:47.702Z,19.50
2022-12-13T02:29:48.093Z,20.20
2022-12-13T02:32:30.057Z,18.97
2022-12-13T02:34:59.451Z,18.83
2022-12-13T02:37:52.843Z,19.13
2022-12-13T02:40:34.635Z,19.63
2022-12-13T02:43:07.063Z,19.10
2022-12-13T02:45:55.423Z,20.30
2022-12-13T02:48:27.701Z,19.87
2022-12-13T02:50:55.185Z,21.47
2022-12-13T02:53:23.291Z,20.90
2022-12-13T02:55:49.835Z,23.43
2022-12-13T02:58:22.659Z,19.80
2022-12-13T03:01:02.721Z,20.57
2022-12-13T03:03:34.939Z,19.30
2022-12-13T03:06:33.598Z,19.90
2022-12-13T03:09:20.457Z,20.60
2022-12-13T03:12:17.684Z,17.37
2022-12-13T03:15:09.127Z,18.73
2022-12-13T03:17:44.010Z,21.63
2022-12-13T03:20:22.883Z,19.47
2022-12-13T03:22:51.376Z,18.40
2022-12-13T03:25:31.306Z,20.50
2022-12-13T03:28:01.210Z,19.57
2022-12-13T03:30:31.360Z,17.63
2022-12-13T03:32:57.820Z,19.20
2022-12-13T03:35:25.112Z,18.50
2022-12-13T03:38:01.945Z,17.10
2022-12-13T03:40:30.309Z,18.13
2022-12-13T03:42:57.082Z,18.20
2022-12-13T03:45:23.931Z,18.60
2022-12-13T03:47:50.395Z,17.10
2022-12-13T03:50:26.278Z,17.13
2022-12-13T03:53:01.048Z,17.90
2022-12-13T03:55:28.035Z,16.73
2022-12-13T03:57:54.435Z,15.40
2022-12-13T04:00:21.500Z,17.30
2022-12-13T04:02:47.952Z,17.57
2022-12-13T04:05:14.824Z,18.57
2022-12-13T04:07:47.986Z,18.07
2022-12-13T04:10:26.251Z,19.90
2022-12-13T04:13:12.839Z,18.10
2022-12-13T04:15:39.839Z,18.93
2022-12-13T04:18:06.796Z,20.80
2022-12-13T04:20:33.214Z,23.70
2022-12-13T04:22:59.776Z,23.20
2022-12-13T04:25:26.699Z,23.40
2022-12-13T04:27:53.112Z,21.20
2022-12-13T04:30:19.632Z,19.07
2022-12-13T04:32:46.033Z,20.30
2022-12-13T04:35:12.953Z,20.93
2022-12-13T04:37:39.683Z,18.97
2022-12-13T04:40:10.487Z,20.47
2022-12-13T04:42:36.886Z,19.03
2022-12-13T04:45:03.894Z,17.03
2022-12-13T04:47:30.338Z,18.63
2022-12-13T04:49:56.880Z,19.10
2022-12-13T04:52:23.316Z,17.33
2022-12-13T04:54:55.593Z,18.67
2022-12-13T04:57:22.833Z,18.57
2022-12-13T04:59:49.284Z,16.93
2022-12-13T05:02:23.778Z,18.10
2022-12-13T05:04:53.573Z,16.47
2022-12-13T05:07:21.058Z,16.97
2022-12-13T05:09:47.492Z,17.47
2022-12-13T05:12:22.639Z,16.97
2022-12-13T05:14:50.467Z,16.77
2022-12-13T05:17:16.854Z,17.10
2022-12-13T05:19:43.358Z,14.47
2022-12-13T05:22:19.712Z,16.27
2022-12-13T05:24:48.015Z,16.93
2022-12-13T05:27:24.484Z,15.10
2022-12-13T05:30:02.884Z,15.00
2022-12-13T05:32:44.165Z,15.17
2022-12-13T05:35:22.290Z,15.20
2022-12-13T05:37:53.175Z,15.70
2022-12-13T05:40:21.610Z,15.83
2022-12-13T05:42:47.988Z,15.50
2022-12-13T05:45:16.007Z,17.17
2022-12-13T05:47:42.599Z,14.70
2022-12-13T05:50:09.281Z,16.00
2022-12-13T05:52:35.641Z,16.07
2022-12-13T05:55:02.288Z,14.10
2022-12-13T05:57:28.807Z,13.87
2022-12-13T05:59:55.630Z,14.80
2022-12-13T06:02:25.054Z,14.97
2022-12-13T06:04:52.513Z,12.90
2022-12-13T06:07:20.995Z,15.20
2022-12-13T06:09:47.523Z,14.80
2022-12-13T06:12:31.411Z,12.87
2022-12-13T06:17:39.349Z,13.80
2022-12-13T06:20:24.190Z,15.13
2022-12-13T06:22:53.651Z,17.37
2022-12-13T06:25:30.760Z,15.00
2022-12-13T06:28:01.235Z,14.17
2022-12-13T06:30:29.143Z,14.77
2022-12-13T06:32:56.098Z,15.27
2022-12-13T06:35:27.843Z,14.33
2022-12-13T06:38:01.365Z,14.53
2022-12-13T06:40:30.271Z,14.83
2022-12-13T06:42:57.296Z,15.03
2022-12-13T06:45:23.840Z,14.90
2022-12-13T06:47:50.276Z,14.37
2022-12-13T06:50:16.901Z,13.90
2022-12-13T06:52:46.360Z,14.80
2022-12-13T06:55:12.989Z,13.93
2022-12-13T06:57:40.759Z,15.03
2022-12-13T07:00:09.460Z,14.27
2022-12-13T07:02:37.885Z,14.20
2022-12-13T07:05:04.742Z,15.60
2022-12-13T07:07:31.131Z,14.40
2022-12-13T07:09:57.611Z,15.00
2022-12-13T07:12:24.306Z,15.53
2022-12-13T07:14:50.762Z,14.00
2022-12-13T07:17:33.511Z,14.23
2022-12-13T07:20:02.758Z,16.30
2022-12-13T07:22:29.218Z,15.20
2022-12-13T07:25:01.422Z,17.60
2022-12-13T07:27:27.790Z,16.30
2022-12-13T07:29:54.150Z,16.10
2022-12-13T07:32:20.520Z,14.50
2022-12-13T07:34:46.875Z,16.90
2022-12-13T07:37:29.546Z,17.97
2022-12-13T07:40:02.869Z,17.20
2022-12-13T07:42:30.593Z,17.20
2022-12-13T07:44:57.021Z,17.17
2022-12-13T07:47:23.485Z,16.60
2022-12-13T07:49:49.956Z,18.03
2022-12-13T07:52:16.441Z,17.60
2022-12-13T07:54:43.093Z,17.60
2022-12-13T07:57:09.624Z,15.90
2022-12-13T07:59:36.594Z,16.10
2022-12-13T08:02:03.267Z,14.83
2022-12-13T08:04:29.771Z,15.20
2022-12-13T08:07:07.119Z,14.87
2022-12-13T08:09:33.480Z,15.40
2022-12-13T08:12:01.398Z,16.43
2022-12-13T08:14:27.957Z,15.97
2022-12-13T08:16:54.392Z,16.40
2022-12-13T08:19:20.893Z,17.27
2022-12-13T08:21:56.789Z,16.70
2022-12-13T08:24:26.016Z,16.20
2022-12-13T08:26:52.627Z,16.50
2022-12-13T08:29:32.133Z,16.47
2022-12-13T08:32:06.093Z,16.87
2022-12-13T08:34:32.602Z,17.30
2022-12-13T08:37:01.898Z,15.97
2022-12-13T08:39:30.201Z,16.13
2022-12-13T08:42:00.412Z,16.80
2022-12-13T08:44:42.321Z,14.07
2022-12-13T08:47:09.076Z,15.83
2022-12-13T08:49:35.455Z,15.70
2022-12-13T08:52:01.825Z,16.23
2022-12-13T08:54:31.734Z,19.30
2022-12-13T08:56:58.351Z,20.37
2022-12-13T08:59:26.012Z,19.60
2022-12-13T09:01:53.984Z,22.40
2022-12-13T09:04:31.686Z,18.57
2022-12-13T09:07:01.193Z,21.73
2022-12-13T09:09:29.082Z,20.93
2022-12-13T09:11:59.648Z,20.17
2022-12-13T09:14:34.105Z,21.30
2022-12-13T09:17:02.896Z,20.17
2022-12-13T09:19:37.094Z,22.63
2022-12-13T09:22:04.940Z,20.10
2022-12-13T09:24:36.675Z,17.83
2022-12-13T09:27:09.573Z,20.57
2022-12-13T09:29:37.237Z,22.43
2022-12-13T09:32:03.963Z,19.67
2022-12-13T09:34:32.883Z,20.50
2022-12-13T09:37:01.636Z,20.70
2022-12-13T09:39:29.038Z,20.47
2022-12-13T09:42:01.418Z,18.60
2022-12-13T09:44:42.458Z,19.67
2022-12-13T09:47:23.841Z,20.07
2022-12-13T09:49:52.139Z,21.80
2022-12-13T09:52:23.327Z,19.20
2022-12-13T09:54:56.055Z,19.60
2022-12-13T09:57:40.877Z,17.97
2022-12-13T10:00:14.278Z,17.70
2022-12-13T10:02:57.087Z,19.10
2022-12-13T10:05:37.221Z,18.77
2022-12-13T10:08:24.191Z,18.93
2022-12-13T10:10:53.024Z,18.87
2022-12-13T10:13:45.772Z,19.03
2022-12-13T10:16:23.387Z,17.43
2022-12-13T10:18:51.001Z,16.23
2022-12-13T10:21:22.878Z,17.73
2022-12-13T10:26:37.816Z,19.60
2022-12-13T10:29:06.529Z,18.40
2022-12-13T10:31:45.391Z,17.47
2022-12-13T10:34:21.617Z,17.87
2022-12-13T10:36:48.387Z,23.37
2022-12-13T10:39:18.403Z,21.10
2022-12-13T10:41:47.456Z,18.70
2022-12-13T10:44:13.810Z,20.30
2022-12-13T10:46:42.797Z,18.13
2022-12-13T10:50:01.765Z,18.80
2022-12-13T10:52:34.344Z,17.13
2022-12-13T10:55:26.581Z,16.00
2022-12-13T10:57:56.581Z,18.80
2022-12-13T11:00:45.510Z,16.63
2022-12-13T11:03:32.494Z,16.87
2022-12-13T11:06:04.966Z,17.00
2022-12-13T11:08:31.406Z,17.70
2022-12-13T11:11:05.995Z,18.10
2022-12-13T11:13:44.768Z,16.27
2022-12-13T11:16:21.799Z,18.33
2022-12-13T11:18:54.197Z,18.00
2022-12-13T11:21:29.766Z,16.70
2022-12-13T11:24:02.001Z,16.60
2022-12-13T11:26:31.023Z,17.80
2022-12-13T11:29:18.991Z,18.17
2022-12-13T11:32:07.889Z,17.93
2022-12-13T11:35:02.694Z,18.27
2022-12-13T11:37:44.114Z,16.07
2022-12-13T11:40:16.108Z,16.40
2022-12-13T11:42:51.750Z,17.33
2022-12-13T11:45:27.705Z,16.40
2022-12-13T11:48:09.453Z,17.43
2022-12-13T11:50:37.058Z,18.33
2022-12-13T11:53:06.455Z,16.57
2022-12-13T11:55:40.346Z,17.00
2022-12-13T12:01:21.347Z,17.97
2022-12-13T12:03:57.666Z,15.97
2022-12-13T12:06:29.491Z,17.33
2022-12-13T12:09:10.710Z,15.80
2022-12-13T12:11:53.981Z,15.60
2022-12-13T12:14:29.475Z,18.00
2022-12-13T12:16:58.928Z,16.03
2022-12-13T12:19:33.895Z,16.27
2022-12-13T12:22:30.924Z,17.10
2022-12-13T12:25:13.857Z,16.47
2022-12-13T12:27:48.192Z,16.73
2022-12-13T12:30:24.400Z,15.80
2022-12-13T12:32:50.965Z,17.87
2022-12-13T12:35:45.673Z,18.77
2022-12-13T12:39:01.547Z,16.20
2022-12-13T12:41:45.565Z,17.00
2022-12-13T12:44:33.954Z,16.00
2022-12-13T12:47:57.563Z,15.90
2022-12-13T12:50:34.422Z,17.10
2022-12-13T12:53:22.581Z,15.50
2022-12-13T12:56:11.358Z,15.67
2022-12-13T12:58:55.187Z,14.03
2022-12-13T13:01:37.692Z,13.53
2022-12-13T13:04:14.091Z,12.07
2022-12-13T13:07:23.400Z,12.90
2022-12-13T13:09:54.858Z,11.73
2022-12-13T13:12:29.536Z,10.80
2022-12-13T13:14:57.545Z,11.60
2022-12-13T13:17:23.886Z,11.33
2022-12-13T13:20:12.134Z,12.40
2022-12-13T13:22:44.450Z,12.03
2022-12-13T13:25:25.979Z,12.40
2022-12-13T13:28:01.728Z,12.40
2022-12-13T13:30:28.591Z,11.70
2022-12-13T13:32:57.957Z,13.00
2022-12-13T13:35:33.427Z,12.70
2022-12-13T13:38:05.056Z,12.63
2022-12-13T13:40:34.368Z,12.20
2022-12-13T13:43:06.628Z,12.10
2022-12-13T13:45:51.424Z,12.43
2022-12-13T13:48:55.628Z,11.07
2022-12-13T13:51:54.867Z,11.63
2022-12-13T13:54:46.374Z,12.23
2022-12-13T13:58:00.372Z,11.63
2022-12-13T14:00:28.642Z,11.13
2022-12-13T14:03:33.770Z,11.77
2022-12-13T14:06:06.709Z,11.13
2022-12-13T14:09:01.571Z,11.00
2022-12-13T14:12:06.176Z,10.57
2022-12-13T14:15:01.380Z,11.10
2022-12-13T14:18:03.293Z,10.33
2022-12-13T14:20:45.201Z,9.93
2022-12-13T14:23:48.402Z,10.90
2022-12-13T14:26:28.906Z,9.70
2022-12-13T14:29:00.931Z,8.80
2022-12-13T14:31:37.244Z,9.33
2022-12-13T14:34:07.396Z,9.83
2022-12-13T14:36:36.601Z,9.03
2022-12-13T14:39:24.504Z,8.90
2022-12-13T14:41:56.688Z,9.47
2022-12-13T14:44:29.546Z,10.47
2022-12-13T14:47:01.807Z,8.30
2022-12-13T14:49:31.014Z,8.10
2022-12-13T14:52:27.199Z,9.30
2022-12-13T14:54:58.064Z,9.90
2022-12-13T14:57:28.547Z,9.80
2022-12-13T14:59:57.201Z,11.03
2022-12-13T15:02:31.321Z,11.20
2022-12-13T15:05:01.232Z,11.40
2022-12-13T15:07:32.747Z,11.50
2022-12-13T15:10:02.576Z,11.00
2022-12-13T15:12:29.922Z,11.70
2022-12-13T15:15:04.031Z,11.00
2022-12-13T15:17:34.314Z,10.70
2022-12-13T15:20:01.305Z,10.80
2022-12-13T15:22:29.420Z,11.00
2022-12-13T15:24:57.877Z,12.50
2022-12-13T15:27:25.167Z,11.90
2022-12-13T15:29:54.151Z,10.87
2022-12-13T15:32:24.861Z,10.27
2022-12-13T15:34:51.894Z,10.03
2022-12-13T15:37:45.954Z,10.60
2022-12-13T15:40:14.826Z,10.90
2022-12-13T15:42:47.036Z,11.27
2022-12-13T15:45:22.732Z,9.03
2022-12-13T15:47:51.163Z,10.40
2022-12-13T15:50:36.379Z,10.43
2022-12-13T15:53:19.392Z,10.13
2022-12-13T15:55:46.670Z,9.50
2022-12-13T15:58:26.312Z,10.33
2022-12-13T16:00:53.192Z,10.27
2022-12-13T16:03:24.725Z,9.90
2022-12-13T16:05:54.833Z,10.40
2022-12-13T16:08:28.943Z,10.03
2022-12-13T16:10:56.835Z,9.83
2022-12-13T16:13:34.181Z,9.30
2022-12-13T16:16:09.186Z,9.60
2022-12-13T16:18:51.646Z,9.60
2022-12-13T16:21:18.135Z,9.33
2022-12-13T16:23:48.314Z,9.60
2022-12-13T16:26:25.952Z,9.70
2022-12-13T16:28:54.013Z,9.20
2022-12-13T16:31:23.454Z,9.50
2022-12-13T16:33:49.916Z,11.37
2022-12-13T16:36:16.359Z,10.63
2022-12-13T16:38:42.782Z,9.87
2022-12-13T16:41:10.022Z,10.60
2022-12-13T16:44:01.005Z,10.20
2022-12-13T16:47:17.115Z,10.67
2022-12-13T16:49:22.210Z,10.30
2022-12-13T16:51:49.232Z,12.93
2022-12-13T16:54:17.093Z,10.40
2022-12-13T16:56:43.583Z,10.80
2022-12-13T16:59:22.254Z,10.83
2022-12-13T17:01:50.254Z,10.60
2022-12-13T17:04:21.122Z,9.57
2022-12-13T17:06:50.169Z,11.90
2022-12-13T17:09:17.006Z,9.30
2022-12-13T17:11:43.491Z,9.93
2022-12-13T17:14:10.227Z,9.70
2022-12-13T17:16:36.825Z,9.43
2022-12-13T17:19:03.593Z,9.60
2022-12-13T17:21:30.346Z,11.07
2022-12-13T17:23:58.391Z,8.70
2022-12-13T17:26:25.609Z,8.90
2022-12-13T17:28:52.454Z,9.50
2022-12-13T17:31:19.516Z,9.93
2022-12-13T17:33:46.343Z,9.20
2022-12-13T17:36:14.722Z,8.10
2022-12-13T17:38:45.802Z,9.13
2022-12-13T17:41:16.246Z,9.00
2022-12-13T17:43:43.875Z,8.90
2022-12-13T17:46:13.947Z,9.90
2022-12-13T17:48:41.633Z,8.33
2022-12-13T17:51:12.275Z,8.40
2022-12-13T17:53:40.039Z,9.13
2022-12-13T17:56:08.415Z,9.47
2022-12-13T17:58:35.543Z,10.03
2022-12-13T18:01:22.030Z,8.87
2022-12-13T18:03:51.334Z,10.17
2022-12-13T18:06:18.113Z,10.90
2022-12-13T18:08:45.556Z,9.10
2022-12-13T18:11:32.480Z,9.53
2022-12-13T18:14:01.452Z,10.20
2022-12-13T18:16:35.769Z,9.50
2022-12-13T18:19:03.918Z,10.53
2022-12-13T18:21:30.379Z,9.40
2022-12-13T18:23:58.863Z,10.13
2022-12-13T18:26:25.338Z,8.43
2022-12-13T18:28:52.376Z,10.13
2022-12-13T18:31:22.226Z,10.73
2022-12-13T18:33:50.693Z,9.00
2022-12-13T18:36:18.461Z,9.80
2022-12-13T18:38:45.306Z,9.60
2022-12-13T18:41:17.217Z,10.00
2022-12-13T18:43:44.794Z,10.23
2022-12-13T18:46:13.321Z,10.10
2022-12-13T18:48:40.462Z,8.10
2022-12-13T18:51:09.588Z,10.67
2022-12-13T18:53:37.233Z,9.17
2022-12-13T18:56:06.109Z,10.60
2022-12-13T18:58:33.441Z,10.43
2022-12-13T19:01:00.194Z,10.97
2022-12-13T19:03:27.294Z,10.53
2022-12-13T19:05:56.525Z,10.57
2022-12-13T19:08:26.110Z,11.30
2022-12-13T19:10:55.781Z,10.43
2022-12-13T19:13:25.073Z,10.93
2022-12-13T19:15:53.956Z,11.10
2022-12-13T19:18:21.014Z,10.23
2022-12-13T19:20:49.235Z,10.57
2022-12-13T19:23:16.337Z,9.43
2022-12-13T19:25:42.872Z,11.67
2022-12-13T19:28:11.048Z,8.87
2022-12-13T19:30:38.585Z,11.70
2022-12-13T19:33:06.789Z,12.43
2022-12-13T19:35:33.738Z,12.67
2022-12-13T19:38:00.278Z,13.30
2022-12-13T19:40:26.943Z,12.73
2022-12-13T19:42:53.338Z,12.73
2022-12-13T19:45:19.840Z,13.13
2022-12-13T19:47:48.879Z,11.73
2022-12-13T19:50:15.442Z,12.67
2022-12-13T19:52:41.841Z,11.00
2022-12-13T19:55:08.600Z,10.93
2022-12-13T19:57:35.622Z,10.40
2022-12-13T20:00:02.069Z,9.47
2022-12-13T20:02:28.644Z,9.50
2022-12-13T20:04:55.119Z,10.10
2022-12-13T20:07:21.663Z,10.80
2022-12-13T20:09:48.099Z,10.87
2022-12-13T20:12:14.519Z,10.23
2022-12-13T20:14:40.972Z,9.63
2022-12-13T20:17:08.131Z,10.93
2022-12-13T20:19:34.564Z,9.93
2022-12-13T20:22:01.033Z,8.73
2022-12-13T20:24:27.411Z,8.80
2022-12-13T20:26:53.879Z,9.43
2022-12-13T20:29:21.087Z,9.67
2022-12-13T20:31:51.264Z,9.60
2022-12-13T20:34:19.601Z,9.70
2022-12-13T20:36:46.031Z,9.73
2022-12-13T20:39:13.484Z,9.10
2022-12-13T20:41:40.328Z,10.23
2022-12-13T20:44:08.509Z,9.10
2022-12-13T20:46:35.312Z,9.87
2022-12-13T20:49:03.881Z,8.30
2022-12-13T20:51:32.123Z,8.10
2022-12-13T20:53:58.850Z,9.30
2022-12-13T20:56:32.604Z,8.40
2022-12-13T20:58:59.014Z,9.30
2022-12-13T21:01:28.211Z,8.77
2022-12-13T21:03:56.170Z,9.50
2022-12-13T21:06:23.044Z,9.77
2022-12-13T21:08:52.125Z,8.43
2022-12-13T21:11:26.455Z,9.10
2022-12-13T21:14:08.255Z,8.50
2022-12-13T21:16:45.185Z,8.23
2022-12-13T21:19:17.797Z,8.77
2022-12-13T21:21:44.248Z,8.27
2022-12-13T21:24:14.538Z,7.70
2022-12-13T21:26:41.788Z,8.10
2022-12-13T21:29:10.909Z,8.60
2022-12-13T21:31:38.101Z,9.37
2022-12-13T21:34:06.127Z,8.00
2022-12-13T21:36:35.206Z,8.83
2022-12-13T21:39:05.297Z,9.43
2022-12-13T21:41:31.838Z,8.90
2022-12-13T21:44:00.376Z,9.40
2022-12-13T21:46:47.824Z,9.30
2022-12-13T21:49:15.547Z,8.67
2022-12-13T21:51:47.428Z,8.10
2022-12-13T21:54:14.672Z,9.60
2022-12-13T21:56:59.759Z,8.40
2022-12-13T21:59:27.693Z,9.13
2022-12-13T22:02:12.006Z,8.20
2022-12-13T22:04:47.287Z,8.40
2022-12-13T22:07:19.255Z,8.60
2022-12-13T22:09:46.518Z,9.13
2022-12-13T22:12:23.150Z,8.23
2022-12-13T22:14:50.227Z,8.30
2022-12-13T22:17:18.110Z,8.70
2022-12-13T22:19:48.566Z,7.73
2022-12-13T22:22:16.399Z,8.43
2022-12-13T22:24:42.805Z,8.13
2022-12-13T22:27:09.237Z,7.70
2022-12-13T22:29:35.772Z,7.67
2022-12-13T22:32:02.644Z,8.70
2022-12-13T22:34:29.211Z,8.80
2022-12-13T22:36:55.689Z,8.30
2022-12-13T22:39:23.652Z,7.90
2022-12-13T22:41:51.325Z,8.47
2022-12-13T22:44:19.391Z,8.20
2022-12-13T22:46:46.267Z,8.00
2022-12-13T22:49:13.219Z,7.93
2022-12-13T22:51:39.851Z,9.03
2022-12-13T22:54:06.755Z,8.70
2022-12-13T22:56:33.488Z,8.03
2022-12-13T22:59:01.927Z,7.80
2022-12-13T23:01:30.643Z,8.40
2022-12-13T23:03:57.432Z,8.50
2022-12-13T23:06:28.987Z,7.37
2022-12-13T23:08:58.004Z,7.90
2022-12-13T23:11:43.642Z,8.20
2022-12-13T23:14:13.803Z,8.90
2022-12-13T23:16:40.975Z,9.00
2022-12-13T23:19:40.461Z,7.60
2022-12-13T23:21:56.764Z,8.53
2022-12-13T23:24:23.243Z,7.87
2022-12-13T23:26:49.747Z,9.70
2022-12-13T23:29:16.193Z,8.27
2022-12-13T23:31:48.874Z,9.80
2022-12-13T23:34:15.842Z,10.10
2022-12-13T23:36:42.508Z,9.30
2022-12-13T23:39:09.292Z,9.63
2022-12-13T23:41:36.138Z,9.87
2022-12-13T23:44:04.346Z,7.97
2022-12-13T23:46:36.085Z,8.30
2022-12-13T23:49:05.303Z,8.53
2022-12-13T23:51:33.031Z,7.60
2022-12-13T23:53:59.600Z,7.43
2022-12-13T23:56:26.330Z,8.33
2022-12-13T23:58:52.773Z,8.00
